sensor_id;sensor_type;location;lat;lon;timestamp;pressure;altitude;pressure_sealevel;temperature;humidity
47913;BME280;33676;51.006;17.180;2022-11-03T00:02:18;100986.73;;;7.08;89.28
47913;BME280;33676;51.006;17.180;2022-11-03T00:04:47;100988.64;;;6.98;88.65
47913;BME280;33676;51.006;17.180;2022-11-03T00:07:22;100989.28;;;6.86;88.25
47913;BME280;33676;51.006;17.180;2022-11-03T00:09:50;100996.45;;;6.75;88.15
47913;BME280;33676;51.006;17.180;2022-11-03T00:12:18;100996.07;;;6.65;88.04
47913;BME280;33676;51.006;17.180;2022-11-03T00:14:47;100998.38;;;6.57;87.94
47913;BME280;33676;51.006;17.180;2022-11-03T00:17:15;100995.23;;;6.50;88.02
47913;BME280;33676;51.006;17.180;2022-11-03T00:19:43;100994.98;;;6.46;88.17
47913;BME280;33676;51.006;17.180;2022-11-03T00:22:12;100995.92;;;6.41;88.34
47913;BME280;33676;51.006;17.180;2022-11-03T00:24:40;100996.93;;;6.37;88.63
47913;BME280;33676;51.006;17.180;2022-11-03T00:27:09;100991.76;;;6.33;88.84
47913;BME280;33676;51.006;17.180;2022-11-03T00:29:37;100993.14;;;6.30;88.80
47913;BME280;33676;51.006;17.180;2022-11-03T00:32:05;100991.88;;;6.27;89.00
47913;BME280;33676;51.006;17.180;2022-11-03T00:34:33;100987.39;;;6.23;88.99
47913;BME280;33676;51.006;17.180;2022-11-03T00:37:02;100990.88;;;6.20;89.04
47913;BME280;33676;51.006;17.180;2022-11-03T00:39:30;100987.27;;;6.15;89.04
47913;BME280;33676;51.006;17.180;2022-11-03T00:41:58;100988.48;;;6.12;88.97
47913;BME280;33676;51.006;17.180;2022-11-03T00:44:27;100984.88;;;6.07;88.95
47913;BME280;33676;51.006;17.180;2022-11-03T00:46:55;100984.17;;;6.04;89.20
47913;BME280;33676;51.006;17.180;2022-11-03T00:49:24;100983.31;;;6.00;89.28
47913;BME280;33676;51.006;17.180;2022-11-03T00:51:52;100982.75;;;5.97;89.43
47913;BME280;33676;51.006;17.180;2022-11-03T00:54:20;100980.49;;;5.93;89.44
47913;BME280;33676;51.006;17.180;2022-11-03T00:56:49;100982.72;;;5.90;89.32
47913;BME280;33676;51.006;17.180;2022-11-03T00:59:17;100980.30;;;5.86;89.52
47913;BME280;33676;51.006;17.180;2022-11-03T01:01:45;100979.67;;;5.81;89.41
47913;BME280;33676;51.006;17.180;2022-11-03T01:04:16;100978.17;;;5.76;89.56
47913;BME280;33676;51.006;17.180;2022-11-03T01:07:04;100980.16;;;5.71;89.38
47913;BME280;33676;51.006;17.180;2022-11-03T01:09:38;100980.11;;;5.65;89.59
47913;BME280;33676;51.006;17.180;2022-11-03T01:12:16;100979.58;;;5.57;89.67
47913;BME280;33676;51.006;17.180;2022-11-03T01:14:49;100982.14;;;5.51;89.77
47913;BME280;33676;51.006;17.180;2022-11-03T01:17:24;100982.73;;;5.45;89.78
47913;BME280;33676;51.006;17.180;2022-11-03T01:19:53;100986.14;;;5.43;90.13
47913;BME280;33676;51.006;17.180;2022-11-03T01:22:23;100980.13;;;5.42;90.56
47913;BME280;33676;51.006;17.180;2022-11-03T01:24:51;100975.32;;;5.41;90.80
47913;BME280;33676;51.006;17.180;2022-11-03T01:27:20;100978.02;;;5.39;90.91
47913;BME280;33676;51.006;17.180;2022-11-03T01:29:50;100978.08;;;5.37;91.05
47913;BME280;33676;51.006;17.180;2022-11-03T01:32:18;100981.70;;;5.33;90.99
47913;BME280;33676;51.006;17.180;2022-11-03T01:34:47;100980.68;;;5.29;91.03
47913;BME280;33676;51.006;17.180;2022-11-03T01:37:15;100979.50;;;5.24;90.61
47913;BME280;33676;51.006;17.180;2022-11-03T01:39:43;100981.13;;;5.20;90.72
47913;BME280;33676;51.006;17.180;2022-11-03T01:42:12;100984.86;;;5.14;90.48
47913;BME280;33676;51.006;17.180;2022-11-03T01:44:47;100985.48;;;5.08;90.31
47913;BME280;33676;51.006;17.180;2022-11-03T01:47:24;100984.11;;;4.99;90.24
47913;BME280;33676;51.006;17.180;2022-11-03T01:50:10;100981.67;;;4.91;90.31
47913;BME280;33676;51.006;17.180;2022-11-03T01:52:47;100974.22;;;4.83;90.25
47913;BME280;33676;51.006;17.180;2022-11-03T01:55:21;100972.67;;;4.79;90.64
47913;BME280;33676;51.006;17.180;2022-11-03T01:58:19;100973.60;;;4.78;90.82
47913;BME280;33676;51.006;17.180;2022-11-03T02:00:50;100971.08;;;4.76;91.24
47913;BME280;33676;51.006;17.180;2022-11-03T02:03:20;100969.46;;;4.73;91.15
47913;BME280;33676;51.006;17.180;2022-11-03T02:05:50;100967.48;;;4.71;91.06
47913;BME280;33676;51.006;17.180;2022-11-03T02:11:07;100962.51;;;4.67;91.27
47913;BME280;33676;51.006;17.180;2022-11-03T02:13:54;100962.98;;;4.63;91.37
47913;BME280;33676;51.006;17.180;2022-11-03T02:16:24;100960.34;;;4.60;91.33
47913;BME280;33676;51.006;17.180;2022-11-03T02:18:54;100957.05;;;4.56;91.48
47913;BME280;33676;51.006;17.180;2022-11-03T02:21:42;100956.49;;;4.53;91.39
47913;BME280;33676;51.006;17.180;2022-11-03T02:24:51;100953.27;;;4.52;91.85
47913;BME280;33676;51.006;17.180;2022-11-03T02:27:21;100949.19;;;4.50;91.83
47913;BME280;33676;51.006;17.180;2022-11-03T02:29:50;100950.81;;;4.48;92.09
47913;BME280;33676;51.006;17.180;2022-11-03T02:32:23;100948.30;;;4.46;92.02
47913;BME280;33676;51.006;17.180;2022-11-03T02:35:10;100944.91;;;4.44;91.91
47913;BME280;33676;51.006;17.180;2022-11-03T02:37:43;100938.27;;;4.42;91.83
47913;BME280;33676;51.006;17.180;2022-11-03T02:40:18;100939.45;;;4.38;91.85
47913;BME280;33676;51.006;17.180;2022-11-03T02:42:51;100937.15;;;4.36;91.78
47913;BME280;33676;51.006;17.180;2022-11-03T02:45:22;100934.46;;;4.33;91.87
47913;BME280;33676;51.006;17.180;2022-11-03T02:47:56;100930.55;;;4.32;92.21
47913;BME280;33676;51.006;17.180;2022-11-03T02:50:31;100933.92;;;4.29;92.00
47913;BME280;33676;51.006;17.180;2022-11-03T02:53:00;100936.57;;;4.28;92.12
47913;BME280;33676;51.006;17.180;2022-11-03T02:58:17;100933.44;;;4.25;92.24
47913;BME280;33676;51.006;17.180;2022-11-03T03:00:53;100928.13;;;4.23;92.58
47913;BME280;33676;51.006;17.180;2022-11-03T03:03:34;100929.52;;;4.23;92.54
47913;BME280;33676;51.006;17.180;2022-11-03T03:06:09;100929.55;;;4.22;92.52
47913;BME280;33676;51.006;17.180;2022-11-03T03:08:44;100928.05;;;4.21;92.86
47913;BME280;33676;51.006;17.180;2022-11-03T03:11:15;100923.58;;;4.21;92.91
47913;BME280;33676;51.006;17.180;2022-11-03T03:13:44;100920.33;;;4.20;92.90
47913;BME280;33676;51.006;17.180;2022-11-03T03:16:23;100920.02;;;4.19;92.70
47913;BME280;33676;51.006;17.180;2022-11-03T03:19:06;100921.40;;;4.15;92.61
47913;BME280;33676;51.006;17.180;2022-11-03T03:21:43;100916.35;;;4.12;92.44
47913;BME280;33676;51.006;17.180;2022-11-03T03:24:36;100910.92;;;4.09;92.70
47913;BME280;33676;51.006;17.180;2022-11-03T03:27:09;100909.13;;;4.07;92.70
47913;BME280;33676;51.006;17.180;2022-11-03T03:29:45;100905.23;;;4.05;92.77
47913;BME280;33676;51.006;17.180;2022-11-03T03:32:19;100902.86;;;4.03;92.79
47913;BME280;33676;51.006;17.180;2022-11-03T03:34:50;100901.80;;;3.99;92.49
47913;BME280;33676;51.006;17.180;2022-11-03T03:37:22;100900.86;;;3.97;92.56
47913;BME280;33676;51.006;17.180;2022-11-03T03:39:57;100899.42;;;3.94;92.54
47913;BME280;33676;51.006;17.180;2022-11-03T03:42:29;100895.35;;;3.92;92.71
47913;BME280;33676;51.006;17.180;2022-11-03T03:44:58;100899.91;;;3.90;92.73
47913;BME280;33676;51.006;17.180;2022-11-03T03:47:30;100898.45;;;3.88;92.63
47913;BME280;33676;51.006;17.180;2022-11-03T03:50:00;100897.20;;;3.85;92.52
47913;BME280;33676;51.006;17.180;2022-11-03T03:52:29;100902.70;;;3.81;92.50
47913;BME280;33676;51.006;17.180;2022-11-03T03:54:58;100898.52;;;3.78;92.47
47913;BME280;33676;51.006;17.180;2022-11-03T03:57:29;100894.92;;;3.77;92.88
47913;BME280;33676;51.006;17.180;2022-11-03T03:59:58;100893.44;;;3.75;92.99
47913;BME280;33676;51.006;17.180;2022-11-03T04:02:26;100889.08;;;3.72;93.04
47913;BME280;33676;51.006;17.180;2022-11-03T04:04:55;100890.55;;;3.69;93.04
47913;BME280;33676;51.006;17.180;2022-11-03T04:07:25;100888.45;;;3.65;92.90
47913;BME280;33676;51.006;17.180;2022-11-03T04:10:14;100889.46;;;3.63;92.99
47913;BME280;33676;51.006;17.180;2022-11-03T04:12:44;100889.04;;;3.61;93.02
47913;BME280;33676;51.006;17.180;2022-11-03T04:15:31;100883.10;;;3.58;92.96
47913;BME280;33676;51.006;17.180;2022-11-03T04:18:20;100884.02;;;3.56;93.05
47913;BME280;33676;51.006;17.180;2022-11-03T04:21:11;100883.79;;;3.53;93.30
47913;BME280;33676;51.006;17.180;2022-11-03T04:23:59;100881.95;;;3.52;93.15
47913;BME280;33676;51.006;17.180;2022-11-03T04:26:28;100878.55;;;3.50;93.20
47913;BME280;33676;51.006;17.180;2022-11-03T04:28:57;100884.63;;;3.49;93.29
47913;BME280;33676;51.006;17.180;2022-11-03T04:31:27;100879.69;;;3.47;93.37
47913;BME280;33676;51.006;17.180;2022-11-03T04:33:56;100879.92;;;3.46;93.29
47913;BME280;33676;51.006;17.180;2022-11-03T04:36:25;100879.48;;;3.44;93.25
47913;BME280;33676;51.006;17.180;2022-11-03T04:38:53;100875.70;;;3.44;93.50
47913;BME280;33676;51.006;17.180;2022-11-03T04:41:24;100873.49;;;3.42;93.70
47913;BME280;33676;51.006;17.180;2022-11-03T04:43:56;100869.52;;;3.43;93.81
47913;BME280;33676;51.006;17.180;2022-11-03T04:46:27;100869.02;;;3.42;93.85
47913;BME280;33676;51.006;17.180;2022-11-03T04:48:58;100866.10;;;3.41;93.97
47913;BME280;33676;51.006;17.180;2022-11-03T04:51:30;100866.82;;;3.41;93.98
47913;BME280;33676;51.006;17.180;2022-11-03T04:54:10;100859.09;;;3.40;94.05
47913;BME280;33676;51.006;17.180;2022-11-03T04:56:40;100862.25;;;3.38;93.95
47913;BME280;33676;51.006;17.180;2022-11-03T04:59:14;100864.17;;;3.38;94.09
47913;BME280;33676;51.006;17.180;2022-11-03T05:01:44;100857.83;;;3.37;94.17
47913;BME280;33676;51.006;17.180;2022-11-03T05:04:16;100856.98;;;3.36;94.25
47913;BME280;33676;51.006;17.180;2022-11-03T05:06:54;100853.59;;;3.34;94.15
47913;BME280;33676;51.006;17.180;2022-11-03T05:09:26;100853.66;;;3.32;94.27
47913;BME280;33676;51.006;17.180;2022-11-03T05:11:56;100855.77;;;3.31;94.03
47913;BME280;33676;51.006;17.180;2022-11-03T05:14:27;100848.25;;;3.29;94.29
47913;BME280;33676;51.006;17.180;2022-11-03T05:16:59;100843.44;;;3.28;94.15
47913;BME280;33676;51.006;17.180;2022-11-03T05:19:40;100844.86;;;3.28;94.07
47913;BME280;33676;51.006;17.180;2022-11-03T05:22:19;100841.80;;;3.26;94.27
47913;BME280;33676;51.006;17.180;2022-11-03T05:24:57;100840.11;;;3.25;94.01
47913;BME280;33676;51.006;17.180;2022-11-03T05:27:27;100836.38;;;3.23;93.89
47913;BME280;33676;51.006;17.180;2022-11-03T05:29:58;100833.34;;;3.22;94.15
47913;BME280;33676;51.006;17.180;2022-11-03T05:32:32;100826.65;;;3.20;94.11
47913;BME280;33676;51.006;17.180;2022-11-03T05:35:01;100827.55;;;3.19;94.18
47913;BME280;33676;51.006;17.180;2022-11-03T05:37:33;100829.62;;;3.19;94.29
47913;BME280;33676;51.006;17.180;2022-11-03T05:42:45;100826.22;;;3.18;94.55
47913;BME280;33676;51.006;17.180;2022-11-03T05:45:29;100826.88;;;3.19;94.68
47913;BME280;33676;51.006;17.180;2022-11-03T05:48:01;100826.16;;;3.20;94.95
47913;BME280;33676;51.006;17.180;2022-11-03T05:50:34;100824.95;;;3.20;95.20
47913;BME280;33676;51.006;17.180;2022-11-03T05:55:48;100827.63;;;3.22;95.17
47913;BME280;33676;51.006;17.180;2022-11-03T05:58:25;100825.06;;;3.21;94.84
47913;BME280;33676;51.006;17.180;2022-11-03T06:00:54;100821.10;;;3.21;94.88
47913;BME280;33676;51.006;17.180;2022-11-03T06:03:28;100820.73;;;3.22;94.89
47913;BME280;33676;51.006;17.180;2022-11-03T06:05:58;100813.48;;;3.21;94.90
47913;BME280;33676;51.006;17.180;2022-11-03T06:08:34;100815.56;;;3.21;95.00
47913;BME280;33676;51.006;17.180;2022-11-03T06:11:09;100820.00;;;3.22;95.16
47913;BME280;33676;51.006;17.180;2022-11-03T06:13:43;100813.02;;;3.24;95.38
47913;BME280;33676;51.006;17.180;2022-11-03T06:16:36;100819.83;;;3.27;95.54
47913;BME280;33676;51.006;17.180;2022-11-03T06:19:25;100821.84;;;3.28;95.65
47913;BME280;33676;51.006;17.180;2022-11-03T06:22:25;100826.87;;;3.32;95.91
47913;BME280;33676;51.006;17.180;2022-11-03T06:24:59;100826.84;;;3.38;96.28
47913;BME280;33676;51.006;17.180;2022-11-03T06:27:30;100826.60;;;3.44;96.53
47913;BME280;33676;51.006;17.180;2022-11-03T06:30:24;100826.55;;;3.49;96.72
47913;BME280;33676;51.006;17.180;2022-11-03T06:32:57;100828.00;;;3.57;96.82
47913;BME280;33676;51.006;17.180;2022-11-03T06:35:26;100828.55;;;3.64;97.06
47913;BME280;33676;51.006;17.180;2022-11-03T06:37:57;100829.80;;;3.71;97.19
47913;BME280;33676;51.006;17.180;2022-11-03T06:40:33;100835.39;;;3.78;97.62
47913;BME280;33676;51.006;17.180;2022-11-03T06:43:17;100837.92;;;3.71;99.19
47913;BME280;33676;51.006;17.180;2022-11-03T06:45:59;100837.02;;;3.56;99.53
47913;BME280;33676;51.006;17.180;2022-11-03T06:48:28;100837.92;;;3.42;99.87
47913;BME280;33676;51.006;17.180;2022-11-03T06:50:57;100836.58;;;3.36;100.00
47913;BME280;33676;51.006;17.180;2022-11-03T06:53:31;100834.29;;;3.37;100.00
47913;BME280;33676;51.006;17.180;2022-11-03T06:56:00;100834.91;;;3.44;100.00
47913;BME280;33676;51.006;17.180;2022-11-03T06:58:33;100832.20;;;3.51;100.00
47913;BME280;33676;51.006;17.180;2022-11-03T07:01:30;100836.48;;;3.60;100.00
47913;BME280;33676;51.006;17.180;2022-11-03T07:04:13;100837.28;;;3.74;100.00
47913;BME280;33676;51.006;17.180;2022-11-03T07:06:44;100832.42;;;3.91;100.00
47913;BME280;33676;51.006;17.180;2022-11-03T07:09:23;100830.77;;;4.07;100.00
47913;BME280;33676;51.006;17.180;2022-11-03T07:11:57;100828.94;;;4.21;100.00
47913;BME280;33676;51.006;17.180;2022-11-03T07:14:32;100824.15;;;4.35;100.00
47913;BME280;33676;51.006;17.180;2022-11-03T07:17:05;100828.60;;;4.48;100.00
47913;BME280;33676;51.006;17.180;2022-11-03T07:19:41;100827.66;;;4.62;100.00
47913;BME280;33676;51.006;17.180;2022-11-03T07:22:29;100826.09;;;4.77;100.00
47913;BME280;33676;51.006;17.180;2022-11-03T07:25:00;100824.59;;;4.94;100.00
47913;BME280;33676;51.006;17.180;2022-11-03T07:27:35;100824.14;;;5.12;100.00
47913;BME280;33676;51.006;17.180;2022-11-03T07:30:22;100820.27;;;5.27;100.00
47913;BME280;33676;51.006;17.180;2022-11-03T07:32:53;100811.53;;;5.44;100.00
47913;BME280;33676;51.006;17.180;2022-11-03T07:38:21;100815.39;;;5.74;100.00
47913;BME280;33676;51.006;17.180;2022-11-03T07:40:50;100813.01;;;5.87;100.00
47913;BME280;33676;51.006;17.180;2022-11-03T07:43:33;100814.77;;;6.01;100.00
47913;BME280;33676;51.006;17.180;2022-11-03T07:46:04;100810.16;;;6.16;100.00
47913;BME280;33676;51.006;17.180;2022-11-03T07:48:39;100805.91;;;6.31;100.00
47913;BME280;33676;51.006;17.180;2022-11-03T07:51:31;100801.41;;;6.48;100.00
47913;BME280;33676;51.006;17.180;2022-11-03T07:54:23;100800.23;;;6.66;100.00
47913;BME280;33676;51.006;17.180;2022-11-03T07:57:05;100797.18;;;6.87;100.00
47913;BME280;33676;51.006;17.180;2022-11-03T07:59:41;100797.89;;;7.09;100.00
47913;BME280;33676;51.006;17.180;2022-11-03T08:02:36;100797.21;;;7.27;100.00
47913;BME280;33676;51.006;17.180;2022-11-03T08:05:09;100792.02;;;7.33;100.00
47913;BME280;33676;51.006;17.180;2022-11-03T08:07:38;100786.40;;;7.37;100.00
47913;BME280;33676;51.006;17.180;2022-11-03T08:10:07;100781.27;;;7.51;100.00
47913;BME280;33676;51.006;17.180;2022-11-03T08:12:35;100779.63;;;7.76;100.00
47913;BME280;33676;51.006;17.180;2022-11-03T08:15:04;100779.58;;;8.00;100.00
47913;BME280;33676;51.006;17.180;2022-11-03T08:17:33;100774.02;;;8.26;100.00
47913;BME280;33676;51.006;17.180;2022-11-03T08:20:01;100771.70;;;8.53;100.00
47913;BME280;33676;51.006;17.180;2022-11-03T08:22:30;100768.21;;;8.81;100.00
47913;BME280;33676;51.006;17.180;2022-11-03T08:24:58;100762.61;;;9.11;100.00
47913;BME280;33676;51.006;17.180;2022-11-03T08:27:26;100751.96;;;9.41;100.00
47913;BME280;33676;51.006;17.180;2022-11-03T08:29:55;100748.55;;;9.71;100.00
47913;BME280;33676;51.006;17.180;2022-11-03T08:32:23;100742.23;;;10.02;100.00
47913;BME280;33676;51.006;17.180;2022-11-03T08:34:52;100738.41;;;10.33;100.00
47913;BME280;33676;51.006;17.180;2022-11-03T08:37:20;100735.81;;;10.64;100.00
47913;BME280;33676;51.006;17.180;2022-11-03T08:39:49;100733.38;;;10.93;100.00
47913;BME280;33676;51.006;17.180;2022-11-03T08:42:17;100731.60;;;11.20;100.00
47913;BME280;33676;51.006;17.180;2022-11-03T08:44:45;100724.73;;;11.46;100.00
47913;BME280;33676;51.006;17.180;2022-11-03T08:47:14;100723.07;;;11.75;100.00
47913;BME280;33676;51.006;17.180;2022-11-03T08:49:42;100713.14;;;12.05;100.00
47913;BME280;33676;51.006;17.180;2022-11-03T08:52:10;100702.25;;;12.34;100.00
47913;BME280;33676;51.006;17.180;2022-11-03T08:54:39;100696.03;;;12.63;99.89
47913;BME280;33676;51.006;17.180;2022-11-03T08:57:08;100690.95;;;12.89;99.02
47913;BME280;33676;51.006;17.180;2022-11-03T08:59:36;100686.88;;;13.11;97.93
47913;BME280;33676;51.006;17.180;2022-11-03T09:02:05;100685.90;;;13.34;97.27
47913;BME280;33676;51.006;17.180;2022-11-03T09:04:34;100682.45;;;13.58;96.86
47913;BME280;33676;51.006;17.180;2022-11-03T09:07:02;100672.31;;;13.86;96.95
47913;BME280;33676;51.006;17.180;2022-11-03T09:09:31;100669.70;;;14.14;96.41
47913;BME280;33676;51.006;17.180;2022-11-03T09:12:19;100663.55;;;14.45;95.42
47913;BME280;33676;51.006;17.180;2022-11-03T09:14:47;100661.90;;;14.67;94.34
47913;BME280;33676;51.006;17.180;2022-11-03T09:17:16;100660.71;;;14.90;93.67
47913;BME280;33676;51.006;17.180;2022-11-03T09:19:44;100659.43;;;15.12;93.04
47913;BME280;33676;51.006;17.180;2022-11-03T09:22:12;100652.10;;;15.34;92.62
47913;BME280;33676;51.006;17.180;2022-11-03T09:24:41;100657.54;;;15.52;91.43
47913;BME280;33676;51.006;17.180;2022-11-03T09:27:09;100652.91;;;15.71;91.14
47913;BME280;33676;51.006;17.180;2022-11-03T09:29:38;100651.81;;;15.96;90.65
47913;BME280;33676;51.006;17.180;2022-11-03T09:32:26;100641.63;;;16.21;90.00
47913;BME280;33676;51.006;17.180;2022-11-03T09:34:54;100638.43;;;16.43;89.37
47913;BME280;33676;51.006;17.180;2022-11-03T09:37:23;100627.89;;;16.64;88.74
47913;BME280;33676;51.006;17.180;2022-11-03T09:39:51;100627.66;;;16.81;87.85
47913;BME280;33676;51.006;17.180;2022-11-03T09:42:20;100616.43;;;16.87;87.33
47913;BME280;33676;51.006;17.180;2022-11-03T09:44:49;100615.70;;;16.88;85.99
47913;BME280;33676;51.006;17.180;2022-11-03T09:47:27;100613.36;;;16.81;85.18
47913;BME280;33676;51.006;17.180;2022-11-03T09:49:56;100617.14;;;16.78;85.22
47913;BME280;33676;51.006;17.180;2022-11-03T09:52:25;100611.41;;;16.81;85.20
47913;BME280;33676;51.006;17.180;2022-11-03T09:54:53;100605.63;;;16.82;84.78
47913;BME280;33676;51.006;17.180;2022-11-03T09:57:26;100608.42;;;16.81;84.12
47913;BME280;33676;51.006;17.180;2022-11-03T09:59:55;100606.91;;;16.79;83.54
47913;BME280;33676;51.006;17.180;2022-11-03T10:02:30;100604.61;;;16.77;83.37
47913;BME280;33676;51.006;17.180;2022-11-03T10:05:00;100606.29;;;16.72;82.93
47913;BME280;33676;51.006;17.180;2022-11-03T10:07:37;100596.15;;;16.66;82.75
47913;BME280;33676;51.006;17.180;2022-11-03T10:10:14;100598.79;;;16.61;82.33
47913;BME280;33676;51.006;17.180;2022-11-03T10:12:44;100597.85;;;16.50;81.60
47913;BME280;33676;51.006;17.180;2022-11-03T10:15:16;100597.23;;;16.42;81.37
47913;BME280;33676;51.006;17.180;2022-11-03T10:17:45;100589.80;;;16.40;81.89
47913;BME280;33676;51.006;17.180;2022-11-03T10:20:18;100587.98;;;16.50;82.11
47913;BME280;33676;51.006;17.180;2022-11-03T10:22:52;100580.63;;;16.66;82.27
47913;BME280;33676;51.006;17.180;2022-11-03T10:25:42;100577.40;;;16.80;82.18
47913;BME280;33676;51.006;17.180;2022-11-03T10:28:23;100575.02;;;16.85;80.44
47913;BME280;33676;51.006;17.180;2022-11-03T10:31:05;100564.08;;;16.45;78.57
47913;BME280;33676;51.006;17.180;2022-11-03T10:33:50;100564.35;;;15.97;78.03
47913;BME280;33676;51.006;17.180;2022-11-03T10:36:23;100555.22;;;15.62;78.81
47913;BME280;33676;51.006;17.180;2022-11-03T10:38:52;100549.37;;;15.68;80.66
47913;BME280;33676;51.006;17.180;2022-11-03T10:41:26;100547.13;;;15.92;81.56
47913;BME280;33676;51.006;17.180;2022-11-03T10:46:39;100536.99;;;16.47;82.21
47913;BME280;33676;51.006;17.180;2022-11-03T10:49:23;100532.39;;;16.75;82.19
47913;BME280;33676;51.006;17.180;2022-11-03T10:51:54;100526.16;;;17.02;82.08
47913;BME280;33676;51.006;17.180;2022-11-03T10:54:24;100524.27;;;17.29;82.11
47913;BME280;33676;51.006;17.180;2022-11-03T10:56:52;100523.17;;;17.58;82.00
47913;BME280;33676;51.006;17.180;2022-11-03T10:59:30;100522.20;;;17.74;81.06
47913;BME280;33676;51.006;17.180;2022-11-03T11:02:00;100514.79;;;17.81;80.49
47913;BME280;33676;51.006;17.180;2022-11-03T11:04:31;100511.60;;;17.97;80.23
47913;BME280;33676;51.006;17.180;2022-11-03T11:06:59;100507.16;;;18.08;79.87
47913;BME280;33676;51.006;17.180;2022-11-03T11:09:28;100510.94;;;18.08;79.42
47913;BME280;33676;51.006;17.180;2022-11-03T11:12:12;100500.48;;;17.95;78.92
47913;BME280;33676;51.006;17.180;2022-11-03T11:15:00;100498.08;;;17.89;78.43
47913;BME280;33676;51.006;17.180;2022-11-03T11:17:45;100487.95;;;18.11;78.59
47913;BME280;33676;51.006;17.180;2022-11-03T11:22:46;100472.87;;;18.65;78.84
47913;BME280;33676;51.006;17.180;2022-11-03T11:25:17;100465.73;;;18.96;78.42
47913;BME280;33676;51.006;17.180;2022-11-03T11:27:53;100458.75;;;19.19;77.74
47913;BME280;33676;51.006;17.180;2022-11-03T11:33:12;100445.85;;;19.64;76.82
47913;BME280;33676;51.006;17.180;2022-11-03T11:41:15;100427.00;;;20.14;75.37
47913;BME280;33676;51.006;17.180;2022-11-03T11:43:43;100428.73;;;20.29;74.98
47913;BME280;33676;51.006;17.180;2022-11-03T11:49:15;100419.38;;;20.53;74.01
47913;BME280;33676;51.006;17.180;2022-11-03T11:51:44;100418.17;;;20.68;73.74
47913;BME280;33676;51.006;17.180;2022-11-03T11:54:18;100415.74;;;20.78;72.83
47913;BME280;33676;51.006;17.180;2022-11-03T11:56:47;100411.34;;;20.89;72.78
47913;BME280;33676;51.006;17.180;2022-11-03T11:59:23;100408.23;;;20.99;72.42
47913;BME280;33676;51.006;17.180;2022-11-03T12:01:55;100406.64;;;21.08;72.32
47913;BME280;33676;51.006;17.180;2022-11-03T12:04:27;100402.27;;;21.19;71.87
47913;BME280;33676;51.006;17.180;2022-11-03T12:06:58;100398.41;;;21.25;71.34
47913;BME280;33676;51.006;17.180;2022-11-03T12:09:27;100394.13;;;21.29;70.92
47913;BME280;33676;51.006;17.180;2022-11-03T12:11:58;100390.39;;;21.29;70.62
47913;BME280;33676;51.006;17.180;2022-11-03T12:14:37;100384.66;;;21.32;70.36
47913;BME280;33676;51.006;17.180;2022-11-03T12:19:49;100381.84;;;21.48;69.86
47913;BME280;33676;51.006;17.180;2022-11-03T12:29:52;100368.79;;;21.68;68.56
47913;BME280;33676;51.006;17.180;2022-11-03T12:32:22;100368.72;;;21.73;68.14
47913;BME280;33676;51.006;17.180;2022-11-03T12:35:05;100367.65;;;21.73;67.90
47913;BME280;33676;51.006;17.180;2022-11-03T12:37:35;100360.77;;;21.70;67.33
47913;BME280;33676;51.006;17.180;2022-11-03T12:40:05;100354.72;;;21.59;67.10
47913;BME280;33676;51.006;17.180;2022-11-03T12:42:34;100350.27;;;21.47;67.45
47913;BME280;33676;51.006;17.180;2022-11-03T12:45:02;100348.36;;;21.34;67.25
47913;BME280;33676;51.006;17.180;2022-11-03T12:47:31;100345.15;;;21.10;67.05
47913;BME280;33676;51.006;17.180;2022-11-03T12:49:59;100340.77;;;20.83;66.81
47913;BME280;33676;51.006;17.180;2022-11-03T12:52:28;100336.34;;;20.57;67.02
47913;BME280;33676;51.006;17.180;2022-11-03T12:54:56;100336.05;;;20.35;67.11
47913;BME280;33676;51.006;17.180;2022-11-03T12:57:24;100327.31;;;20.12;67.21
47913;BME280;33676;51.006;17.180;2022-11-03T12:59:53;100324.92;;;19.92;67.38
47913;BME280;33676;51.006;17.180;2022-11-03T13:02:21;100324.20;;;19.78;67.65
47913;BME280;33676;51.006;17.180;2022-11-03T13:04:50;100320.45;;;19.69;67.79
47913;BME280;33676;51.006;17.180;2022-11-03T13:07:18;100314.71;;;19.62;67.97
47913;BME280;33676;51.006;17.180;2022-11-03T13:09:56;100310.97;;;19.51;68.19
47913;BME280;33676;51.006;17.180;2022-11-03T13:12:24;100312.29;;;19.46;68.53
47913;BME280;33676;51.006;17.180;2022-11-03T13:15:01;100309.45;;;19.43;68.62
47913;BME280;33676;51.006;17.180;2022-11-03T13:17:30;100308.95;;;19.42;68.64
47913;BME280;33676;51.006;17.180;2022-11-03T13:20:13;100304.98;;;19.34;68.52
47913;BME280;33676;51.006;17.180;2022-11-03T13:22:44;100298.77;;;19.28;68.63
47913;BME280;33676;51.006;17.180;2022-11-03T13:25:12;100290.05;;;19.23;68.58
47913;BME280;33676;51.006;17.180;2022-11-03T13:27:41;100287.78;;;19.19;68.70
47913;BME280;33676;51.006;17.180;2022-11-03T13:30:10;100285.19;;;19.18;68.79
47913;BME280;33676;51.006;17.180;2022-11-03T13:32:39;100281.31;;;19.16;68.81
47913;BME280;33676;51.006;17.180;2022-11-03T13:35:08;100277.45;;;19.16;68.81
47913;BME280;33676;51.006;17.180;2022-11-03T13:37:44;100271.90;;;19.16;68.90
47913;BME280;33676;51.006;17.180;2022-11-03T13:40:14;100267.94;;;19.19;68.98
47913;BME280;33676;51.006;17.180;2022-11-03T13:43:03;100265.59;;;19.23;68.94
47913;BME280;33676;51.006;17.180;2022-11-03T13:45:32;100263.26;;;19.34;69.13
47913;BME280;33676;51.006;17.180;2022-11-03T13:48:01;100260.45;;;19.43;69.34
47913;BME280;33676;51.006;17.180;2022-11-03T13:50:49;100256.55;;;19.53;69.17
47913;BME280;33676;51.006;17.180;2022-11-03T13:53:19;100252.32;;;19.68;69.10
47913;BME280;33676;51.006;17.180;2022-11-03T13:56:07;100244.84;;;19.77;68.96
47913;BME280;33676;51.006;17.180;2022-11-03T13:58:42;100242.34;;;19.81;68.75